Slave Lake Airport
CYZH : now visible

Airfield :











YOU CAN JOIN US ON...

 
LOGIN :

Register | Disclaimer

   EN    FR    IT 

 









Legend :    VFR   Marginal VFR   IFR   Intensive IFR   Very Intensive IFR
Visi :
Ceiling :
>= 8 km
>= 3000ft
5 to 8 km
1000 to 3000 ft
1500m to 5 km
500 to 1000 ft
800 to 1500m
200 to 500 ft
< 800m
< 200 ft
Symbols :   Thunderstorms  Fog  Heavy snow  Heavy precipitations  Wind > 20 kt






- Airport Elevation : 1912 ft
- IATA code : YZH


CYZH - Slave Lake

CURRENT METAR :
  • 210600Z AUTO 02005KT 350V050 9SM -SN OVC029 M02/M06 A3001 RMK SLP197

EXPIRED METARs :
  • 210551Z AUTO 03006KT 9SM -SN OVC029 M02/M06 A3001 RMK SLP197
  • 210500Z AUTO 07002KT 9SM -SN SCT015 SCT020 OVC027 M02/M04 A3000 RMK SLP195
  • 210459Z AUTO 06002KT 9SM -SN SCT015 SCT020 OVC027 M02/M04 A3000 RMK SLP197
  • 210431Z AUTO 31003KT 250V340 9SM -SN OVC019 M02/M05 A3000 RMK SLP196
  • 210423Z AUTO VRB02KT 9SM OVC019 M02/M04 A3000 RMK SLP196
  • 210400Z AUTO 33003KT 270V360 9SM -SN OVC023 M02/M04 A3000 RMK SLP194
  • 210346Z AUTO 30005KT 9SM -SN BKN023 OVC045 M02/M04 A3000 RMK SLP195

TAF AMD TAF CYZH
Valid from the 21 at 03:00 until the 21 at 13:00 UTC


210346Z 2103/2113 VRB03KT P6SM SCT020 OVC040
TEMPO 2103/2105 5SM -SN BKN020 OVC040
FM210500 33005KT P6SM BKN050
TEMPO 2105/2109 4SM -SN OVC020
FM210900 34008KT P6SM OVC020
TEMPO 2109/2113 4SM -SN BR OVC008 RMK FCST BASED ON AUTO OBS. NXT FCST BY 210700Z
CZEG FIR / North America



MET'MAP, your aeronautical weather chart ! - Copyright ORBIFLY December 2007 - Disclaimer

ORBIFLY MET'MAP TEAM :

Programming & Development : Alexandra Zaïnal
Concept & original design : Baudouin d'Aumeries
Assistance for programming : Marc-Olivier Méhu
Technical & hardware support : Manuel Goepfert

Contact : metmap@orbifly.com




SOURCES & CREDITS :

   NOAA       Earth
Advisory